Time;durP1;ratioP1;P1;durP2;ratioP2;P2;SDS_P1;SDS_P2;PMS_P1;PMS_P2;Temp;Humidity;BMP_temperature;BMP_pressure;BME280_temperature;BME280_humidity;BME280_pressure;Samples;Min_cycle;Max_cycle;Signal;HPM_P1;HPM_P2
2022/05/03 00:01:27;;;;;;;3.1;2;;;;;;;9.25;91.63867;935.8508;;;;
2022/05/03 00:03:53;;;;;;;2.3;1.9;;;;;;;9.28;91.40723;935.8226;;;;
2022/05/03 00:06:19;;;;;;;3;2.3;;;;;;;9.25;91.63672;935.8794;;;;
2022/05/03 00:08:47;;;;;;;2.7;2.3;;;;;;;9.23;91.50977;935.7164;;;;
2022/05/03 00:11:13;;;;;;;2.4;2.2;;;;;;;9.18;91.4873;935.8094;;;;
2022/05/03 00:13:44;;;;;;;3;2.2;;;;;;;9.19;91.29492;935.8173;;;;
2022/05/03 00:16:09;;;;;;;2.8;2.5;;;;;;;9.16;91.29004;935.825;;;;
2022/05/03 00:18:36;;;;;;;3.4;2.6;;;;;;;9.05;91.76758;935.7992;;;;
2022/05/03 00:21:01;;;;;;;2.9;2.1;;;;;;;8.81;92.57031;935.7534;;;;
2022/05/03 00:23:29;;;;;;;2.6;2.1;;;;;;;8.73;94.0293;935.7266;;;;
2022/05/03 00:25:57;;;;;;;2.6;2;;;;;;;8.74;93.56445;935.7442;;;;
2022/05/03 00:28:22;;;;;;;2.2;2;;;;;;;8.84;93.24512;935.6933;;;;
2022/05/03 00:31:16;;;;;;;4.2;2.2;;;;;;;8.89;92.81348;935.6423;;;;
2022/05/03 00:33:41;;;;;;;2.3;2.1;;;;;;;8.87;92.61621;935.6753;;;;
2022/05/03 00:36:07;;;;;;;2.3;1.9;;;;;;;8.73;92.61914;935.6314;;;;
2022/05/03 00:38:38;;;;;;;2.1;1.7;;;;;;;8.77;92.32129;935.6184;;;;
2022/05/03 00:41:02;;;;;;;2.2;2;;;;;;;8.7;92.625;935.5517;;;;
2022/05/03 00:43:29;;;;;;;2.1;1.9;;;;;;;8.74;92.01855;935.5974;;;;
2022/05/03 00:45:54;;;;;;;2.2;2;;;;;;;8.69;91.91797;935.5183;;;;
2022/05/03 00:51:44;;;;;;;2.7;2.3;;;;;;;8.69;91.80371;935.5571;;;;
2022/05/03 00:54:09;;;;;;;2.2;2;;;;;;;8.64;92.2041;935.562;;;;
2022/05/03 00:56:34;;;;;;;3;2.2;;;;;;;8.58;93.21094;935.5634;;;;
2022/05/03 00:59:04;;;;;;;2.6;2.1;;;;;;;8.65;92.53516;935.5313;;;;
2022/05/03 01:01:31;;;;;;;2.7;1.9;;;;;;;8.65;91.76074;935.4875;;;;
2022/05/03 01:04:02;;;;;;;2.1;1.8;;;;;;;8.47;92.32422;935.4953;;;;
2022/05/03 01:06:29;;;;;;;2.5;2;;;;;;;8.39;93.09277;935.5306;;;;
2022/05/03 01:08:54;;;;;;;2.1;1.8;;;;;;;8.45;92.68359;935.4681;;;;
2022/05/03 01:11:19;;;;;;;1.8;1.7;;;;;;;8.45;92.02441;935.5427;;;;
2022/05/03 01:13:45;;;;;;;2.6;1.8;;;;;;;8.43;91.13477;935.5354;;;;
2022/05/03 01:16:16;;;;;;;2.7;1.8;;;;;;;8.43;90.72559;935.4893;;;;
2022/05/03 01:18:41;;;;;;;2.7;1.8;;;;;;;8.38;90.64648;935.5184;;;;
2022/05/03 01:21:07;;;;;;;2;1.7;;;;;;;8.47;90.27832;935.5525;;;;
2022/05/03 01:23:31;;;;;;;2.1;1.9;;;;;;;8.36;91.15527;935.5636;;;;
2022/05/03 01:26:00;;;;;;;2.8;1.9;;;;;;;8.3;91.02832;935.5687;;;;
2022/05/03 01:28:25;;;;;;;1.7;1.6;;;;;;;8.21;91.61133;935.5667;;;;
2022/05/03 01:30:50;;;;;;;1.7;1.6;;;;;;;8.25;90.86914;935.5641;;;;
2022/05/03 01:33:15;;;;;;;1.7;1.5;;;;;;;8.26;90.38281;935.5904;;;;
2022/05/03 01:35:40;;;;;;;2.3;1.6;;;;;;;8.05;91.51953;935.4515;;;;
2022/05/03 01:38:09;;;;;;;3.1;2.2;;;;;;;8.05;91.17969;935.553;;;;
2022/05/03 01:40:34;;;;;;;2.3;2.1;;;;;;;8.11;91.04492;935.5397;;;;
2022/05/03 01:43:01;;;;;;;2.6;2;;;;;;;8.12;92.14648;935.5572;;;;
2022/05/03 01:45:27;;;;;;;1.8;1.7;;;;;;;8.15;91.49512;935.5188;;;;
2022/05/03 01:47:52;;;;;;;3.4;1.7;;;;;;;8.09;91.0166;935.537;;;;
2022/05/03 01:50:23;;;;;;;2;1.7;;;;;;;7.98;91.28906;935.5367;;;;
2022/05/03 01:52:48;;;;;;;1.9;1.8;;;;;;;7.9;92.2041;935.5712;;;;
2022/05/03 01:55:17;;;;;;;4.6;1.7;;;;;;;7.84;92.17676;935.5734;;;;
2022/05/03 01:57:42;;;;;;;2;1.8;;;;;;;7.76;92.00293;935.4666;;;;
2022/05/03 02:00:08;;;;;;;2.8;2;;;;;;;7.62;92.60742;935.4874;;;;
2022/05/03 02:02:33;;;;;;;2.4;1.8;;;;;;;7.56;93.21875;935.4917;;;;
2022/05/03 02:05:00;;;;;;;2.2;1.7;;;;;;;7.55;93.1582;935.5009;;;;
2022/05/03 02:07:25;;;;;;;2.6;2.2;;;;;;;7.52;93.56055;935.449;;;;
2022/05/03 02:09:51;;;;;;;3.1;2.3;;;;;;;7.56;92.60645;935.4316;;;;
2022/05/03 02:12:19;;;;;;;5.2;2.3;;;;;;;7.67;91.67578;935.5341;;;;
2022/05/03 02:14:48;;;;;;;2.8;2.2;;;;;;;7.65;91.27637;935.5386;;;;
2022/05/03 02:17:10;;;;;;;2.5;2.1;;;;;;;7.66;91.2666;935.5491;;;;
2022/05/03 02:19:35;;;;;;;2.5;2.3;;;;;;;7.67;91.51855;935.577;;;;
2022/05/03 02:22:04;;;;;;;3.4;2.3;;;;;;;7.64;91.85059;935.5978;;;;
2022/05/03 02:24:28;;;;;;;2.9;2.2;;;;;;;7.48;92.38477;935.6149;;;;
2022/05/03 02:26:53;;;;;;;2.6;2.1;;;;;;;7.52;92.36035;935.5695;;;;
2022/05/03 02:29:18;;;;;;;2.8;2.2;;;;;;;7.48;92.15625;935.5339;;;;
2022/05/03 02:31:43;;;;;;;2.4;2.1;;;;;;;7.53;92.30371;935.5641;;;;
2022/05/03 02:34:23;;;;;;;3.2;2.2;;;;;;;7.59;91.69629;935.5723;;;;
2022/05/03 02:36:48;;;;;;;4.7;2;;;;;;;7.36;91.84961;935.5658;;;;
2022/05/03 02:39:16;;;;;;;2.5;2.3;;;;;;;7.12;92.94141;935.551;;;;
2022/05/03 02:44:41;;;;;;;2.7;2;;;;;;;6.95;94.57129;935.524;;;;
2022/05/03 02:47:12;;;;;;;2.7;2.1;;;;;;;6.98;94.46191;935.5371;;;;
2022/05/03 02:49:41;;;;;;;3.8;2.4;;;;;;;7.1;93.7627;935.5316;;;;
2022/05/03 02:52:06;;;;;;;3.8;2.6;;;;;;;7.18;93.79199;935.5069;;;;
2022/05/03 02:54:31;;;;;;;2.9;2.2;;;;;;;7.25;93.16211;935.5322;;;;
2022/05/03 02:56:58;;;;;;;2.8;2.2;;;;;;;7.32;92.5791;935.486;;;;
2022/05/03 03:01:47;;;;;;;2.6;2.2;;;;;;;7.26;92.28223;935.4817;;;;
2022/05/03 03:02:06;;;;;;;3.9;2.1;;;;;;;7.24;92.31152;935.3792;;;;
2022/05/03 03:04:32;;;;;;;1.9;1.8;;;;;;;7.05;93.06152;935.443;;;;
2022/05/03 03:07:00;;;;;;;2.3;2;;;;;;;7.06;93.25684;935.4881;;;;
2022/05/03 03:09:25;;;;;;;2.1;1.9;;;;;;;7.12;92.4209;935.4615;;;;
2022/05/03 03:11:52;;;;;;;2.8;1.9;;;;;;;7.05;92.58594;935.4034;;;;
2022/05/03 03:14:19;;;;;;;2.6;2.1;;;;;;;6.88;93.45508;935.4489;;;;
2022/05/03 03:16:41;;;;;;;2.8;2.1;;;;;;;6.85;93.78906;935.4911;;;;
2022/05/03 03:19:06;;;;;;;2.4;2.1;;;;;;;6.91;93.7002;935.4598;;;;
2022/05/03 03:21:31;;;;;;;4.9;2.4;;;;;;;6.83;93.96777;935.4465;;;;
2022/05/03 03:23:57;;;;;;;5.2;2.5;;;;;;;6.84;94.2168;935.4531;;;;
2022/05/03 03:26:28;;;;;;;3;2;;;;;;;6.91;93.71191;935.4758;;;;
2022/05/03 03:28:52;;;;;;;2.1;1.8;;;;;;;6.92;93.44043;935.4686;;;;
2022/05/03 03:31:21;;;;;;;2.6;1.9;;;;;;;6.82;93.78223;935.5002;;;;
2022/05/03 03:33:46;;;;;;;3;1.9;;;;;;;6.87;93.73633;935.4955;;;;
2022/05/03 03:36:16;;;;;;;2.8;1.7;;;;;;;6.85;93.5625;935.4271;;;;
2022/05/03 03:42:13;;;;;;;4.4;2;;;;;;;6.73;94.03418;935.5226;;;;
2022/05/03 03:44:40;;;;;;;3;2;;;;;;;6.62;94.85742;935.4936;;;;
2022/05/03 03:47:06;;;;;;;3;2;;;;;;;6.55;95.70313;935.5394;;;;
2022/05/03 03:49:31;;;;;;;3.5;1.9;;;;;;;6.64;95.65527;935.5209;;;;
2022/05/03 03:51:58;;;;;;;2.1;1.9;;;;;;;6.74;95.19141;935.5569;;;;
2022/05/03 03:55:01;;;;;;;3.5;2.1;;;;;;;6.79;94.43164;935.5664;;;;
2022/05/03 03:57:26;;;;;;;4.2;2.4;;;;;;;6.66;94.74316;935.579;;;;
2022/05/03 03:59:52;;;;;;;3.4;2.5;;;;;;;6.38;96.5918;935.629;;;;
2022/05/03 04:02:34;;;;;;;3.5;2.5;;;;;;;6.49;96.82031;935.6292;;;;
2022/05/03 04:05:04;;;;;;;4;3;;;;;;;6.64;95.4834;935.5391;;;;
2022/05/03 04:07:31;;;;;;;5.4;2.9;;;;;;;6.79;94.75977;935.629;;;;
2022/05/03 04:09:56;;;;;;;3.9;2.8;;;;;;;6.81;94.34668;935.6345;;;;
2022/05/03 04:12:22;;;;;;;4.7;3.4;;;;;;;6.9;93.94727;935.6663;;;;
2022/05/03 04:14:47;;;;;;;4.6;2.9;;;;;;;6.91;93.91602;935.6617;;;;
2022/05/03 04:17:17;;;;;;;5.5;2.8;;;;;;;7.02;93.32813;935.6688;;;;
2022/05/03 04:19:43;;;;;;;5.6;3;;;;;;;7.09;92.61914;935.6328;;;;
2022/05/03 04:22:14;;;;;;;4.7;2.8;;;;;;;7.14;91.78027;935.6916;;;;
2022/05/03 04:24:38;;;;;;;4.4;2.7;;;;;;;7.01;91.83105;935.69;;;;
2022/05/03 04:27:05;;;;;;;3.5;2.6;;;;;;;6.81;92.26367;935.7271;;;;
2022/05/03 04:29:30;;;;;;;4;2.1;;;;;;;6.79;92.28027;935.7628;;;;
2022/05/03 04:31:57;;;;;;;4.5;2.6;;;;;;;6.93;92.13281;935.7357;;;;
2022/05/03 04:34:23;;;;;;;3.3;2.1;;;;;;;6.98;92.07422;935.7747;;;;
2022/05/03 04:36:49;;;;;;;3.2;2;;;;;;;7.08;91.57227;935.7664;;;;
2022/05/03 04:39:15;;;;;;;4.6;2;;;;;;;6.96;91.88965;935.8597;;;;
2022/05/03 04:41:44;;;;;;;6.2;2.5;;;;;;;6.89;92.88184;935.8053;;;;
2022/05/03 04:44:41;;;;;;;4.9;2.5;;;;;;;6.84;93.69629;935.8368;;;;
2022/05/03 04:47:11;;;;;;;3.9;2.1;;;;;;;6.89;94.02539;935.8631;;;;
2022/05/03 04:49:36;;;;;;;7.1;2.9;;;;;;;7.05;93.67188;935.8901;;;;
2022/05/03 04:52:08;;;;;;;4.1;2.6;;;;;;;7.16;92.89258;935.8621;;;;
2022/05/03 04:54:57;;;;;;;3.7;2.5;;;;;;;7.23;92.10254;935.8279;;;;
2022/05/03 04:57:26;;;;;;;4.1;2.5;;;;;;;7.2;91.72266;935.8208;;;;
2022/05/03 04:59:51;;;;;;;4.2;2.8;;;;;;;7.02;92.02539;935.8596;;;;
2022/05/03 05:02:21;;;;;;;7.1;2.5;;;;;;;6.78;93.80859;935.9185;;;;
2022/05/03 05:04:46;;;;;;;5.6;2.6;;;;;;;6.71;95.17383;935.9441;;;;
2022/05/03 05:07:11;;;;;;;5.5;2.9;;;;;;;6.76;94.81055;935.9124;;;;
2022/05/03 05:16:57;;;;;;;4.2;2.9;;;;;;;7.11;94.24219;935.8517;;;;
2022/05/03 05:19:26;;;;;;;6.1;2.8;;;;;;;7.23;93.86035;935.8795;;;;
2022/05/03 05:21:51;;;;;;;7.2;4.4;;;;;;;7.42;93.70898;935.9211;;;;
2022/05/03 05:24:18;;;;;;;8.1;4.3;;;;;;;8.47;95.77832;935.8976;;;;
2022/05/03 05:26:43;;;;;;;8;3;;;;;;;10.38;86.43457;935.7846;;;;
2022/05/03 05:29:10;;;;;;;8.9;3.2;;;;;;;11.98;75.16113;935.7744;;;;
2022/05/03 05:31:35;;;;;;;19.5;8.3;;;;;;;12.35;71.75098;935.8137;;;;
2022/05/03 05:34:00;;;;;;;19.6;9.2;;;;;;;12.87;70.67773;935.8494;;;;
2022/05/03 05:36:29;;;;;;;11.2;5.5;;;;;;;12.94;69.47168;935.8331;;;;
2022/05/03 05:38:54;;;;;;;6.7;3.6;;;;;;;13.61;68.42773;935.7335;;;;
2022/05/03 05:41:26;;;;;;;4.2;2.4;;;;;;;13.11;67.89063;935.8016;;;;
2022/05/03 05:43:55;;;;;;;4;2.3;;;;;;;13.38;67.53125;935.8065;;;;
2022/05/03 05:46:22;;;;;;;4;2.2;;;;;;;14.23;65.41699;935.7859;;;;
2022/05/03 05:51:47;;;;;;;2.6;1.4;;;;;;;14.37;62.47852;935.731;;;;
2022/05/03 05:54:16;;;;;;;2.2;1.3;;;;;;;14.23;62.42285;935.7595;;;;
2022/05/03 05:56:46;;;;;;;2.3;1.5;;;;;;;16.03;58.27637;935.6526;;;;
2022/05/03 05:59:11;;;;;;;2.5;1.2;;;;;;;17.81;54.35547;935.6304;;;;
2022/05/03 06:01:36;;;;;;;1.4;1.3;;;;;;;18.95;49.60742;935.6776;;;;
2022/05/03 06:04:04;;;;;;;7.4;1.2;;;;;;;19.9;46.625;935.6849;;;;
2022/05/03 06:06:30;;;;;;;4.3;1.4;;;;;;;19.94;45.81152;935.6944;;;;
2022/05/03 06:09:01;;;;;;;1.9;1.1;;;;;;;19.6;46.62793;935.6958;;;;
2022/05/03 06:11:31;;;;;;;2.7;1.1;;;;;;;18.18;52.1123;935.6811;;;;
2022/05/03 06:13:59;;;;;;;1.3;1.1;;;;;;;17.53;51.49023;935.6231;;;;
2022/05/03 06:16:30;;;;;;;0.8;0.7;;;;;;;17.26;53.26855;935.6742;;;;
2022/05/03 06:18:57;;;;;;;2.2;1.2;;;;;;;18.25;51.16895;935.5676;;;;
2022/05/03 06:21:22;;;;;;;2.3;1.1;;;;;;;17.93;51.31641;935.6118;;;;
2022/05/03 06:23:52;;;;;;;1;0.9;;;;;;;17.48;55.08203;935.6578;;;;
2022/05/03 06:26:17;;;;;;;2.4;1.1;;;;;;;16.43;56.1875;935.6588;;;;
2022/05/03 06:28:45;;;;;;;0.8;0.8;;;;;;;15.86;58.57715;935.6236;;;;
2022/05/03 06:34:39;;;;;;;1.9;0.8;;;;;;;15.85;58.40234;935.6864;;;;
2022/05/03 06:37:09;;;;;;;1.6;0.8;;;;;;;18.27;54.97168;935.6172;;;;
2022/05/03 06:39:39;;;;;;;2.4;1.1;;;;;;;19.44;48.38184;935.6292;;;;
2022/05/03 06:42:11;;;;;;;0.9;0.7;;;;;;;21.41;45.17969;935.6355;;;;
2022/05/03 06:44:39;;;;;;;2.8;1.3;;;;;;;22.11;42.625;935.6566;;;;
2022/05/03 06:47:05;;;;;;;2;1;;;;;;;22.3;41.95117;935.66;;;;
2022/05/03 06:49:30;;;;;;;0.8;0.8;;;;;;;19.78;46.30859;935.6964;;;;
2022/05/03 06:51:59;;;;;;;1;0.9;;;;;;;17.92;54.0332;935.6958;;;;
2022/05/03 06:54:32;;;;;;;1.4;0.9;;;;;;;18.79;50.71875;935.6566;;;;
2022/05/03 06:57:01;;;;;;;1.2;1;;;;;;;19.09;48.97266;935.5852;;;;
2022/05/03 06:59:31;;;;;;;1.3;0.9;;;;;;;20.72;45.91602;935.6124;;;;
2022/05/03 07:02:01;;;;;;;2.9;1.2;;;;;;;19.95;46.80371;935.5722;;;;
2022/05/03 07:04:27;;;;;;;1.5;0.9;;;;;;;19.66;47.63574;935.5636;;;;
2022/05/03 07:06:56;;;;;;;2;1;;;;;;;21.93;42.25586;935.5334;;;;
2022/05/03 07:09:29;;;;;;;1.4;0.7;;;;;;;22.35;42.09766;935.5574;;;;
2022/05/03 07:11:56;;;;;;;0.6;0.6;;;;;;;25.09;37.20996;935.5255;;;;
2022/05/03 07:14:22;;;;;;;7.6;1.7;;;;;;;25.55;36.20898;935.5061;;;;
2022/05/03 07:16:47;;;;;;;0.8;0.7;;;;;;;23.21;37.4082;935.5387;;;;
2022/05/03 07:22:47;;;;;;;1;0.8;;;;;;;23.19;37.5;935.5233;;;;
2022/05/03 07:25:06;;;;;;;1.9;1;;;;;;;22.52;39.48438;935.5062;;;;
2022/05/03 07:27:41;;;;;;;0.8;0.7;;;;;;;22.35;38.22656;935.438;;;;
2022/05/03 07:30:14;;;;;;;0.9;0.6;;;;;;;22.3;40.13379;935.436;;;;
2022/05/03 07:32:46;;;;;;;0.9;0.7;;;;;;;25.29;36.18848;935.4051;;;;
2022/05/03 07:35:17;;;;;;;0.6;0.6;;;;;;;26.73;32.97656;935.3766;;;;
2022/05/03 07:37:50;;;;;;;1.1;0.7;;;;;;;26.17;34.63965;935.3435;;;;
2022/05/03 07:40:19;;;;;;;1.9;0.7;;;;;;;27.3;31.70215;935.409;;;;
2022/05/03 07:43:36;;;;;;;0.8;0.7;;;;;;;25.01;36.1543;935.3994;;;;
2022/05/03 07:46:04;;;;;;;0.8;0.8;;;;;;;22.46;39.25684;935.3574;;;;
2022/05/03 07:48:29;;;;;;;0.7;0.7;;;;;;;22.96;41.04004;935.2805;;;;
2022/05/03 07:50:58;;;;;;;0.7;0.6;;;;;;;24.82;36.59863;935.3;;;;
2022/05/03 07:53:23;;;;;;;0.8;0.7;;;;;;;25.12;35.06641;935.332;;;;
2022/05/03 07:55:51;;;;;;;0.6;0.6;;;;;;;26.58;34.38672;935.3367;;;;
2022/05/03 07:58:16;;;;;;;1.2;0.7;;;;;;;27.64;31.84473;935.3074;;;;
2022/05/03 08:00:43;;;;;;;0.6;0.6;;;;;;;27.03;31.70703;935.3731;;;;
2022/05/03 08:03:09;;;;;;;0.6;0.5;;;;;;;28.95;29.58008;935.3251;;;;
2022/05/03 08:05:38;;;;;;;1.3;0.7;;;;;;;28.94;29.05664;935.3436;;;;
2022/05/03 08:08:02;;;;;;;0.7;0.6;;;;;;;29.11;31.62695;935.3333;;;;
2022/05/03 08:10:30;;;;;;;0.5;0.5;;;;;;;31;27.91016;935.2662;;;;
2022/05/03 08:12:55;;;;;;;0.7;0.7;;;;;;;31.42;26.33105;935.3113;;;;
2022/05/03 08:15:21;;;;;;;0.7;0.7;;;;;;;29.98;28.41992;935.3544;;;;
2022/05/03 08:17:47;;;;;;;0.8;0.7;;;;;;;29.91;28.78516;935.3962;;;;
2022/05/03 08:20:17;;;;;;;0.8;0.8;;;;;;;30.76;27.02246;935.2703;;;;
2022/05/03 08:22:45;;;;;;;1.1;0.7;;;;;;;30.59;26.17578;935.3344;;;;
2022/05/03 08:25:10;;;;;;;1.5;0.7;;;;;;;30.64;25.67676;935.2636;;;;
2022/05/03 08:27:41;;;;;;;0.5;0.5;;;;;;;28.95;27.83008;935.316;;;;
2022/05/03 08:30:30;;;;;;;0.7;0.7;;;;;;;30.64;26.87207;935.2819;;;;
2022/05/03 08:32:59;;;;;;;1;0.6;;;;;;;30.33;25.27734;935.2938;;;;
2022/05/03 08:35:24;;;;;;;0.6;0.6;;;;;;;31.22;24.56152;935.2849;;;;
2022/05/03 08:42:46;;;;;;;1.6;0.7;;;;;;;29.59;27.44141;935.3422;;;;
2022/05/03 08:45:12;;;;;;;1.2;0.6;;;;;;;30.06;27.64941;935.3122;;;;
2022/05/03 08:47:38;;;;;;;1.1;0.6;;;;;;;30.7;25.99121;935.2991;;;;
2022/05/03 08:50:03;;;;;;;0.7;0.7;;;;;;;30.42;26.1416;935.2869;;;;
2022/05/03 08:52:38;;;;;;;1.7;0.7;;;;;;;31.83;24.57031;935.2759;;;;
2022/05/03 08:55:00;;;;;;;1.5;0.7;;;;;;;30.75;26.91406;935.2582;;;;
2022/05/03 08:57:25;;;;;;;2.4;0.7;;;;;;;31.92;23.77246;935.2278;;;;
2022/05/03 08:59:54;;;;;;;0.5;0.5;;;;;;;32.34;23.01465;935.2575;;;;
2022/05/03 09:02:19;;;;;;;1.9;0.6;;;;;;;31.66;24.39355;935.2522;;;;
2022/05/03 09:04:48;;;;;;;1.2;0.7;;;;;;;30.96;25.10938;935.187;;;;
2022/05/03 09:07:13;;;;;;;0.8;0.7;;;;;;;30.41;24.11133;935.1624;;;;
2022/05/03 09:09:41;;;;;;;0.8;0.7;;;;;;;29.81;27.04883;935.2343;;;;
2022/05/03 09:12:10;;;;;;;1.3;0.7;;;;;;;30.63;23.94434;935.1716;;;;
2022/05/03 09:17:51;;;;;;;1;0.8;;;;;;;30.57;26.19922;935.1507;;;;
2022/05/03 09:25:15;;;;;;;0.7;0.7;;;;;;;26.91;26.70996;935.0521;;;;
2022/05/03 09:27:47;;;;;;;0.7;0.7;;;;;;;26.18;31.08984;935.0363;;;;
2022/05/03 09:30:20;;;;;;;1.2;0.9;;;;;;;26.51;30.72266;935.0553;;;;
2022/05/03 09:32:54;;;;;;;0.7;0.7;;;;;;;26.29;30.49512;935.0549;;;;
2022/05/03 09:35:20;;;;;;;1.6;0.9;;;;;;;27.03;30.08301;935.0151;;;;
2022/05/03 09:40:17;;;;;;;1.6;0.9;;;;;;;26.72;29.97852;934.9716;;;;
2022/05/03 09:42:48;;;;;;;0.8;0.8;;;;;;;27.35;29.74805;934.8574;;;;
2022/05/03 09:45:19;;;;;;;1;0.9;;;;;;;27.67;29.24707;934.8856;;;;
2022/05/03 09:47:44;;;;;;;0.9;0.9;;;;;;;27.2;30.58008;934.8752;;;;
2022/05/03 09:50:16;;;;;;;1.1;0.9;;;;;;;27.35;30.19922;934.8684;;;;
2022/05/03 09:52:47;;;;;;;2.5;1.1;;;;;;;27.41;29.41992;934.7924;;;;
2022/05/03 09:55:17;;;;;;;1.5;1;;;;;;;27.07;29.74121;934.8783;;;;
2022/05/03 09:57:49;;;;;;;1.2;1.1;;;;;;;27.48;31.2041;934.88;;;;
2022/05/03 10:00:17;;;;;;;1.1;1;;;;;;;27.45;29.87305;934.8635;;;;
2022/05/03 10:02:42;;;;;;;1.3;1.2;;;;;;;27.35;30.13965;934.842;;;;
2022/05/03 10:05:07;;;;;;;1;1;;;;;;;27.32;31.14648;934.8625;;;;
2022/05/03 10:07:38;;;;;;;1.2;1.1;;;;;;;27.16;30.87402;934.8328;;;;
2022/05/03 10:10:12;;;;;;;1.6;1.4;;;;;;;27.23;31.00977;934.7473;;;;
2022/05/03 10:12:37;;;;;;;1.5;1.4;;;;;;;27.11;32.96973;934.7326;;;;
2022/05/03 10:15:03;;;;;;;1.1;1.1;;;;;;;26.87;31.48242;934.7469;;;;
2022/05/03 10:22:31;;;;;;;1.6;1.5;;;;;;;26.62;36.27246;934.6462;;;;
2022/05/03 10:25:04;;;;;;;1.4;1.3;;;;;;;26.56;32.79883;934.6528;;;;
2022/05/03 10:27:28;;;;;;;1.4;1.3;;;;;;;26.65;32.43848;934.6971;;;;
2022/05/03 10:29:55;;;;;;;1.6;1.5;;;;;;;26.6;33.40625;934.6217;;;;
2022/05/03 10:32:20;;;;;;;1.4;1.1;;;;;;;26.86;32.25195;934.6214;;;;
2022/05/03 10:37:28;;;;;;;1.8;1.5;;;;;;;26.45;36.10547;934.5604;;;;
2022/05/03 10:39:57;;;;;;;1.5;1.4;;;;;;;25.38;33.81055;934.5276;;;;
2022/05/03 10:42:23;;;;;;;1.6;1.5;;;;;;;25.58;33.10547;934.5133;;;;
2022/05/03 10:44:55;;;;;;;1.5;1.4;;;;;;;24.34;36.66602;934.5535;;;;
2022/05/03 10:47:21;;;;;;;1.6;1.5;;;;;;;23.97;37.85938;934.6225;;;;
2022/05/03 10:49:47;;;;;;;2.8;1.6;;;;;;;24.1;36.51563;934.5867;;;;
2022/05/03 10:52:17;;;;;;;1.6;1.5;;;;;;;24.12;36.69434;934.5125;;;;
2022/05/03 10:54:44;;;;;;;1.3;1.2;;;;;;;24.63;36.1582;934.6264;;;;
2022/05/03 10:59:49;;;;;;;1.4;1.3;;;;;;;26.42;33.11914;934.4511;;;;
2022/05/03 11:02:14;;;;;;;1.4;1.3;;;;;;;25.66;34.93164;934.4057;;;;
2022/05/03 11:04:39;;;;;;;1.4;1.3;;;;;;;26.04;34.62988;934.5136;;;;
2022/05/03 11:07:10;;;;;;;1.7;1.4;;;;;;;25.87;35.47852;934.5076;;;;
2022/05/03 11:09:34;;;;;;;1.7;1.6;;;;;;;26.05;35.58789;934.4189;;;;
2022/05/03 11:12:01;;;;;;;2.7;1.8;;;;;;;26.65;35.6709;934.3498;;;;
2022/05/03 11:14:26;;;;;;;1.5;1.4;;;;;;;26.81;32.63867;934.4711;;;;
2022/05/03 11:16:52;;;;;;;1.8;1.4;;;;;;;27.11;34.05957;934.4562;;;;
2022/05/03 11:30:38;;;;;;;2.6;1.4;;;;;;;26.1;32.41016;934.3792;;;;
2022/05/03 11:33:12;;;;;;;1.4;1.3;;;;;;;26.71;32.05078;934.3889;;;;
2022/05/03 11:35:41;;;;;;;1.8;1.7;;;;;;;26.64;32.23633;934.3608;;;;
2022/05/03 11:40:31;;;;;;;2;1.5;;;;;;;25.18;35.77832;934.2899;;;;
2022/05/03 11:42:59;;;;;;;1.7;1.6;;;;;;;26.15;35.20508;934.3501;;;;
2022/05/03 11:45:24;;;;;;;1.8;1.7;;;;;;;25.83;35.90137;934.3112;;;;
2022/05/03 11:47:54;;;;;;;2.8;1.5;;;;;;;25.46;34.07617;934.3422;;;;
2022/05/03 11:56:00;;;;;;;1.7;1.6;;;;;;;23.31;39.38965;934.2592;;;;
2022/05/03 11:57:42;;;;;;;1.7;1.6;;;;;;;23.13;38.49414;934.2816;;;;
2022/05/03 12:00:15;;;;;;;1.5;1.4;;;;;;;22.82;39.41699;934.2545;;;;
2022/05/03 12:02:45;;;;;;;2.2;1.5;;;;;;;22.72;38.7627;934.321;;;;
2022/05/03 12:05:15;;;;;;;1.8;1.6;;;;;;;22.7;39.08984;934.3592;;;;
2022/05/03 12:07:40;;;;;;;1.6;1.5;;;;;;;22.71;39.00781;934.3572;;;;
2022/05/03 12:10:14;;;;;;;2.5;1.8;;;;;;;21.8;40.12402;934.4105;;;;
2022/05/03 12:12:46;;;;;;;1.7;1.6;;;;;;;21.14;41.44434;934.3936;;;;
2022/05/03 12:15:08;;;;;;;1.6;1.5;;;;;;;20.75;42.92773;934.3205;;;;
2022/05/03 12:17:40;;;;;;;1.8;1.3;;;;;;;20.84;36.99707;934.3558;;;;
2022/05/03 12:20:05;;;;;;;4.2;1.6;;;;;;;21.21;39.2041;934.3124;;;;
2022/05/03 12:22:34;;;;;;;1.7;1.5;;;;;;;21.72;38.85059;934.3229;;;;
2022/05/03 12:24:59;;;;;;;1.8;1.4;;;;;;;22.27;34.4082;934.2861;;;;
2022/05/03 12:27:24;;;;;;;1;1;;;;;;;22.42;34.9707;934.2889;;;;
2022/05/03 12:29:54;;;;;;;1.3;1.1;;;;;;;22.59;34.20996;934.2947;;;;
2022/05/03 12:32:19;;;;;;;0.9;0.9;;;;;;;22.89;34.92578;934.2477;;;;
2022/05/03 12:34:45;;;;;;;0.9;0.8;;;;;;;22.72;33.23438;934.247;;;;
2022/05/03 12:37:15;;;;;;;1.2;1.1;;;;;;;22.58;34.33789;934.2056;;;;
2022/05/03 12:39:40;;;;;;;2.7;1.1;;;;;;;22.74;35.16016;934.247;;;;
2022/05/03 12:42:05;;;;;;;1.1;1.1;;;;;;;22.88;37.12207;934.1797;;;;
2022/05/03 12:44:31;;;;;;;2.4;1.3;;;;;;;23;35.58008;934.15;;;;
2022/05/03 12:46:59;;;;;;;1.3;1.2;;;;;;;22.85;35.51074;934.1428;;;;
2022/05/03 12:49:25;;;;;;;2.4;1.5;;;;;;;22.48;37.56836;934.0834;;;;
2022/05/03 12:51:50;;;;;;;1.4;1.3;;;;;;;22.53;39.28613;933.9774;;;;
2022/05/03 12:54:16;;;;;;;2.1;1.1;;;;;;;22.75;35.17285;934.0054;;;;
2022/05/03 12:59:08;;;;;;;1.8;1.1;;;;;;;23.38;37.25684;933.9869;;;;
2022/05/03 13:01:33;;;;;;;1.5;1.2;;;;;;;23.53;36.9043;933.9191;;;;
2022/05/03 13:04:01;;;;;;;2.2;1.5;;;;;;;23.45;36.16992;933.9016;;;;
2022/05/03 13:06:26;;;;;;;1.9;1.7;;;;;;;23.49;37.61914;933.9073;;;;
2022/05/03 13:08:55;;;;;;;1.6;1.5;;;;;;;23.19;34.94922;933.8499;;;;
2022/05/03 13:11:24;;;;;;;2.4;1.5;;;;;;;22.82;38.49023;933.8459;;;;
2022/05/03 13:13:49;;;;;;;1.7;1.6;;;;;;;22.77;36.81836;933.7921;;;;
2022/05/03 13:16:18;;;;;;;1.6;1.5;;;;;;;22.44;38.80957;933.7889;;;;
2022/05/03 13:18:45;;;;;;;1.8;1.2;;;;;;;21.62;39.11133;933.7756;;;;
2022/05/03 13:21:11;;;;;;;1.3;1.2;;;;;;;21.67;38.72949;933.7819;;;;
2022/05/03 13:23:39;;;;;;;1.7;1.3;;;;;;;21.54;41.03711;933.7432;;;;
2022/05/03 13:26:04;;;;;;;4.8;1.6;;;;;;;21.33;40.29102;933.7942;;;;
2022/05/03 13:28:31;;;;;;;1.5;1.4;;;;;;;21.12;40.21387;933.7644;;;;
2022/05/03 13:30:56;;;;;;;1.4;1.3;;;;;;;20.84;39.14941;933.7195;;;;
2022/05/03 13:33:23;;;;;;;1.4;1.2;;;;;;;20.85;38.56445;933.7734;;;;
2022/05/03 13:40:40;;;;;;;1.6;1.3;;;;;;;21.41;39.29199;933.7009;;;;
2022/05/03 13:43:06;;;;;;;2.5;1.2;;;;;;;21.14;37.8291;933.7506;;;;
2022/05/03 13:45:36;;;;;;;1.9;1.4;;;;;;;20.97;38.71582;933.8312;;;;
2022/05/03 13:48:05;;;;;;;1.4;1.2;;;;;;;21.06;38.72266;933.8947;;;;
2022/05/03 13:50:35;;;;;;;1.9;1.5;;;;;;;20.68;39.6709;933.8912;;;;
2022/05/03 13:53:01;;;;;;;2.1;1.5;;;;;;;20.13;40.60254;934.0057;;;;
2022/05/03 13:55:31;;;;;;;2.3;1.5;;;;;;;20.05;41.58789;934.0237;;;;
2022/05/03 13:57:57;;;;;;;3.5;1.7;;;;;;;19.83;41.19336;934.0736;;;;
2022/05/03 14:00:22;;;;;;;3;1.5;;;;;;;19.93;42.04297;934.092;;;;
2022/05/03 14:06:16;;;;;;;3.2;1.8;;;;;;;20.13;41.68848;934.1049;;;;
2022/05/03 14:08:48;;;;;;;2.3;1.5;;;;;;;20.15;40.7334;934.0388;;;;
2022/05/03 14:11:19;;;;;;;1.7;1.6;;;;;;;19.92;42.08789;934.0561;;;;
2022/05/03 14:13:44;;;;;;;1.9;1.8;;;;;;;19.82;41.47168;934.0438;;;;
2022/05/03 14:16:12;;;;;;;2.2;1.8;;;;;;;20.01;41.82813;934.0829;;;;
2022/05/03 14:18:37;;;;;;;2.1;1.7;;;;;;;20.09;41.83594;934.1339;;;;
2022/05/03 14:21:05;;;;;;;2;1.5;;;;;;;20.16;41.52734;934.2089;;;;
2022/05/03 14:23:30;;;;;;;2;1.6;;;;;;;19.99;41.7334;934.2509;;;;
2022/05/03 14:26:01;;;;;;;2.2;1.6;;;;;;;19.43;43.91797;934.2994;;;;
2022/05/03 14:28:32;;;;;;;1.6;1.5;;;;;;;18.66;46.63281;934.3066;;;;
2022/05/03 14:30:56;;;;;;;2.1;1.9;;;;;;;18.87;47.25977;934.2717;;;;
2022/05/03 14:33:22;;;;;;;2.9;1.9;;;;;;;18.97;48.01563;934.1785;;;;
2022/05/03 14:35:47;;;;;;;2.2;1.7;;;;;;;18.62;47.94238;934.2498;;;;
2022/05/03 14:38:18;;;;;;;3.8;1.9;;;;;;;18.17;49.38086;934.2734;;;;
2022/05/03 14:40:50;;;;;;;2.8;1.8;;;;;;;18.14;50.19043;934.2533;;;;
2022/05/03 14:43:17;;;;;;;1.8;1.5;;;;;;;17.82;50.09668;934.3616;;;;
2022/05/03 14:45:43;;;;;;;1.8;1.6;;;;;;;17.3;52.0332;934.3929;;;;
2022/05/03 14:48:13;;;;;;;2.5;1.6;;;;;;;17.15;52.96484;934.3519;;;;
2022/05/03 14:50:38;;;;;;;4.2;1.8;;;;;;;17.07;53.65039;934.3898;;;;
2022/05/03 14:54:05;;;;;;;3.1;2;;;;;;;17.05;54.56348;934.4217;;;;
2022/05/03 15:04:03;;;;;;;2.1;1.9;;;;;;;16.95;55.06152;934.5023;;;;
2022/05/03 15:06:26;;;;;;;4.3;2;;;;;;;17.09;54.23242;934.4883;;;;
2022/05/03 15:08:53;;;;;;;1.6;1.5;;;;;;;17.09;53.07324;934.5108;;;;
2022/05/03 15:11:17;;;;;;;3.2;1.7;;;;;;;17.26;52.22461;934.5341;;;;
2022/05/03 15:13:42;;;;;;;2.5;1.4;;;;;;;17.39;50.48828;934.5672;;;;
2022/05/03 15:16:13;;;;;;;2.3;1.7;;;;;;;17.51;50.85059;934.613;;;;
2022/05/03 15:18:45;;;;;;;2.7;1.5;;;;;;;17.75;50.22754;934.5251;;;;
2022/05/03 15:21:17;;;;;;;1.8;1.6;;;;;;;17.64;50.80762;934.587;;;;
2022/05/03 15:26:34;;;;;;;1.9;1.7;;;;;;;17.41;51.16406;934.6495;;;;
2022/05/03 15:29:04;;;;;;;2.3;1.8;;;;;;;17.47;52.09961;934.605;;;;
2022/05/03 15:31:31;;;;;;;3.3;1.9;;;;;;;17.59;52.63477;934.5742;;;;
2022/05/03 15:34:01;;;;;;;2.7;2.1;;;;;;;17.7;52.34668;934.585;;;;
2022/05/03 15:36:26;;;;;;;2.8;2.3;;;;;;;17.96;52.36523;934.5525;;;;
2022/05/03 15:38:51;;;;;;;3.3;1.8;;;;;;;18.07;52.51855;934.5621;;;;
2022/05/03 15:41:17;;;;;;;2.7;2;;;;;;;18.43;53.46777;934.4768;;;;
2022/05/03 15:43:42;;;;;;;2.4;1.8;;;;;;;18.54;51.06152;934.4374;;;;
2022/05/03 15:46:07;;;;;;;4.5;2.4;;;;;;;18.53;51.30566;934.3973;;;;
2022/05/03 15:48:32;;;;;;;2.6;1.6;;;;;;;18.68;52.70703;934.372;;;;
2022/05/03 15:50:57;;;;;;;2.3;1.6;;;;;;;18.64;50.2373;934.4118;;;;
2022/05/03 15:53:29;;;;;;;2.5;1.5;;;;;;;18.68;52.76563;934.3495;;;;
2022/05/03 15:55:54;;;;;;;2;1.5;;;;;;;19.02;51.36328;934.4153;;;;
2022/05/03 15:58:19;;;;;;;1.7;1.5;;;;;;;19.19;49.03027;934.3499;;;;
2022/05/03 16:00:45;;;;;;;2.9;2;;;;;;;19.16;50.29688;934.3667;;;;
2022/05/03 16:03:21;;;;;;;2.3;1.8;;;;;;;19.38;46.91895;934.3022;;;;
2022/05/03 16:05:48;;;;;;;2.4;2.2;;;;;;;19.59;47.52441;934.3924;;;;
2022/05/03 16:08:16;;;;;;;3;2.1;;;;;;;19.78;46.11035;934.3228;;;;